createdAt,value
2018-03-25T00:01:34.494Z,7.50
2018-03-25T00:04:01.192Z,7.70
2018-03-25T00:06:27.913Z,6.07
2018-03-25T00:08:54.614Z,6.13
2018-03-25T00:11:21.313Z,8.10
2018-03-25T00:13:48.041Z,7.63
2018-03-25T00:16:14.733Z,9.67
2018-03-25T00:18:41.468Z,9.93
2018-03-25T00:21:08.198Z,6.83
2018-03-25T00:23:34.896Z,6.90
2018-03-25T00:26:01.589Z,8.43
2018-03-25T00:28:28.318Z,6.17
2018-03-25T00:30:55.025Z,8.17
2018-03-25T00:33:21.721Z,6.87
2018-03-25T00:35:48.454Z,8.10
2018-03-25T00:38:15.194Z,6.70
2018-03-25T00:40:41.886Z,7.93
2018-03-25T00:43:08.640Z,9.07
2018-03-25T00:45:35.342Z,7.00
2018-03-25T00:48:02.041Z,8.27
2018-03-25T00:50:28.767Z,6.50
2018-03-25T00:52:55.517Z,6.50
2018-03-25T00:55:22.266Z,6.93
2018-03-25T00:57:48.961Z,6.80
2018-03-25T01:00:15.657Z,6.83
2018-03-25T01:02:42.384Z,6.80
2018-03-25T01:05:09.085Z,6.80
2018-03-25T01:07:35.798Z,6.77
2018-03-25T01:10:02.527Z,5.70
2018-03-25T01:12:29.225Z,7.43
2018-03-25T01:14:55.924Z,9.73
2018-03-25T01:17:22.661Z,8.17
2018-03-25T01:19:49.362Z,7.90
2018-03-25T01:22:16.070Z,8.13
2018-03-25T01:24:42.804Z,7.03
2018-03-25T01:27:09.501Z,6.60
2018-03-25T01:29:36.201Z,8.87
2018-03-25T01:32:02.925Z,6.67
2018-03-25T01:34:29.627Z,7.20
2018-03-25T01:36:56.325Z,8.03
2018-03-25T01:39:23.053Z,8.97
2018-03-25T01:41:49.753Z,8.83
2018-03-25T01:44:16.493Z,8.87
2018-03-25T01:46:43.234Z,8.53
2018-03-25T01:49:09.938Z,8.70
2018-03-25T01:51:36.629Z,7.40
2018-03-25T01:54:03.393Z,7.90
2018-03-25T01:56:30.104Z,8.40
2018-03-25T01:58:56.796Z,7.90
2018-03-25T02:01:23.530Z,7.93
2018-03-25T02:03:50.244Z,9.17
2018-03-25T02:06:16.941Z,8.60
2018-03-25T02:08:43.674Z,7.67
2018-03-25T02:11:10.374Z,8.13
2018-03-25T02:13:37.084Z,8.03
2018-03-25T02:16:03.830Z,9.53
2018-03-25T02:18:30.732Z,7.57
2018-03-25T02:20:57.428Z,7.27
2018-03-25T02:23:24.145Z,7.33
2018-03-25T02:25:50.849Z,8.23
2018-03-25T02:28:17.544Z,7.50
2018-03-25T02:30:44.268Z,7.37
2018-03-25T02:33:10.969Z,8.07
2018-03-25T02:35:37.670Z,9.63
2018-03-25T02:38:04.393Z,10.57
2018-03-25T02:40:31.093Z,10.67
2018-03-25T02:42:57.801Z,8.67
2018-03-25T02:45:24.581Z,8.97
2018-03-25T02:47:51.254Z,8.67
2018-03-25T02:50:17.958Z,10.53
2018-03-25T02:52:44.689Z,9.23
2018-03-25T02:55:11.385Z,8.40
2018-03-25T02:57:38.081Z,8.83
2018-03-25T03:00:04.810Z,10.03
2018-03-25T03:02:31.513Z,10.03
2018-03-25T03:04:58.221Z,8.90
2018-03-25T03:07:24.964Z,9.43
2018-03-25T03:09:51.671Z,9.33
2018-03-25T03:12:18.372Z,8.47
2018-03-25T03:14:45.093Z,9.23
2018-03-25T03:17:11.793Z,9.23
2018-03-25T03:19:38.502Z,7.67
2018-03-25T03:22:05.233Z,8.53
2018-03-25T03:24:31.929Z,10.20
2018-03-25T03:26:58.640Z,8.63
2018-03-25T03:29:25.386Z,9.50
2018-03-25T03:31:52.087Z,8.23
2018-03-25T03:34:18.792Z,9.80
2018-03-25T03:36:45.517Z,11.63
2018-03-25T03:39:12.233Z,10.30
2018-03-25T03:41:38.937Z,8.53
2018-03-25T03:44:05.661Z,10.60
2018-03-25T03:46:32.357Z,7.03
2018-03-25T03:48:59.057Z,6.87
2018-03-25T03:51:25.777Z,8.67
2018-03-25T03:53:52.477Z,8.80
2018-03-25T03:56:19.180Z,9.43
2018-03-25T03:58:45.902Z,8.67
2018-03-25T04:01:12.609Z,9.47
2018-03-25T04:03:39.301Z,8.20
2018-03-25T04:06:06.031Z,8.37
2018-03-25T04:08:32.728Z,11.53
2018-03-25T04:10:59.437Z,11.40
2018-03-25T04:13:26.172Z,8.93
2018-03-25T04:15:52.870Z,11.07
2018-03-25T04:18:19.569Z,10.03
2018-03-25T04:20:46.305Z,6.73
2018-03-25T04:23:13.011Z,10.30
2018-03-25T04:25:39.708Z,9.73
2018-03-25T04:28:06.442Z,11.33
2018-03-25T04:30:33.142Z,10.93
2018-03-25T04:32:59.846Z,8.57
2018-03-25T04:35:26.564Z,9.23
2018-03-25T04:37:53.269Z,11.97
2018-03-25T04:40:19.974Z,10.00
2018-03-25T04:42:46.711Z,13.07
2018-03-25T04:45:13.416Z,13.47
2018-03-25T04:47:40.121Z,11.93
2018-03-25T04:50:06.860Z,12.27
2018-03-25T04:52:33.569Z,12.23
2018-03-25T04:55:00.270Z,11.77
2018-03-25T04:57:26.997Z,10.93
2018-03-25T04:59:53.702Z,11.30
2018-03-25T05:02:20.410Z,11.33
2018-03-25T05:04:47.141Z,9.70
2018-03-25T05:07:13.849Z,11.77
2018-03-25T05:09:40.556Z,11.77
2018-03-25T05:12:07.282Z,11.17
2018-03-25T05:14:33.981Z,11.57
2018-03-25T05:17:00.687Z,12.03
2018-03-25T05:19:27.426Z,10.60
2018-03-25T05:21:54.176Z,11.10
2018-03-25T05:24:20.890Z,11.50
2018-03-25T05:26:47.621Z,10.63
2018-03-25T05:29:14.321Z,9.60
2018-03-25T05:31:41.029Z,12.40
2018-03-25T05:34:07.789Z,10.47
2018-03-25T05:36:34.513Z,11.10
2018-03-25T05:39:01.351Z,9.00
2018-03-25T05:41:28.093Z,13.23
2018-03-25T05:43:54.808Z,11.40
2018-03-25T05:46:21.520Z,12.17
2018-03-25T05:48:48.255Z,9.30
2018-03-25T05:51:14.969Z,11.30
2018-03-25T05:53:41.679Z,10.70
2018-03-25T05:56:08.408Z,13.13
2018-03-25T05:58:35.119Z,11.00
2018-03-25T06:01:01.817Z,9.37
2018-03-25T06:03:28.545Z,9.00
2018-03-25T06:05:55.254Z,10.30
2018-03-25T06:08:21.962Z,9.90
2018-03-25T06:10:48.699Z,11.40
2018-03-25T06:13:15.409Z,11.40
2018-03-25T06:15:42.119Z,11.00
2018-03-25T06:18:08.850Z,8.80
2018-03-25T06:20:35.553Z,10.93
2018-03-25T06:23:02.263Z,10.60
2018-03-25T06:25:28.991Z,11.57
2018-03-25T06:27:55.718Z,10.57
2018-03-25T06:30:22.417Z,7.87
2018-03-25T06:32:49.144Z,10.03
2018-03-25T06:35:15.845Z,8.33
2018-03-25T06:37:42.545Z,9.07
2018-03-25T06:40:09.352Z,10.00
2018-03-25T06:42:36.064Z,8.30
2018-03-25T06:45:02.761Z,8.67
2018-03-25T06:47:29.524Z,9.17
2018-03-25T06:49:56.225Z,9.23
2018-03-25T06:52:22.935Z,7.87
2018-03-25T06:54:49.666Z,9.00
2018-03-25T06:57:16.367Z,8.20
2018-03-25T06:59:43.121Z,8.23
2018-03-25T07:02:09.861Z,10.77
2018-03-25T07:04:36.566Z,11.03
2018-03-25T07:07:03.285Z,9.40
2018-03-25T07:09:30.055Z,9.77
2018-03-25T07:11:56.775Z,10.23
2018-03-25T07:14:23.527Z,10.20
2018-03-25T07:16:50.246Z,10.97
2018-03-25T07:19:16.953Z,8.27
2018-03-25T07:21:43.699Z,10.93
2018-03-25T07:24:10.435Z,9.07
2018-03-25T07:29:16.905Z,8.17
2018-03-25T07:31:43.645Z,8.67
2018-03-25T07:34:10.350Z,10.27
2018-03-25T07:36:37.081Z,11.17
2018-03-25T07:39:03.773Z,8.53
2018-03-25T07:41:30.475Z,7.60
2018-03-25T07:43:57.209Z,9.60
2018-03-25T07:46:24.011Z,7.17
2018-03-25T07:48:50.717Z,7.80
2018-03-25T07:51:17.441Z,9.27
2018-03-25T07:53:44.141Z,6.63
2018-03-25T07:56:10.859Z,10.90
2018-03-25T07:58:37.590Z,8.57
2018-03-25T08:01:04.289Z,6.73
2018-03-25T08:03:30.992Z,7.53
2018-03-25T08:05:57.709Z,7.57
2018-03-25T08:08:24.429Z,10.73
2018-03-25T08:10:51.313Z,9.17
2018-03-25T08:13:18.037Z,7.83
2018-03-25T08:15:44.741Z,7.47
2018-03-25T08:18:11.462Z,8.27
2018-03-25T08:20:38.192Z,7.27
2018-03-25T08:23:04.899Z,8.53
2018-03-25T08:25:31.596Z,6.50
2018-03-25T08:27:58.381Z,8.00
2018-03-25T08:30:25.077Z,9.07
2018-03-25T08:32:51.793Z,9.47
2018-03-25T08:35:18.714Z,7.93
2018-03-25T08:37:45.428Z,8.13
2018-03-25T08:40:12.173Z,8.00
2018-03-25T08:42:38.889Z,6.77
2018-03-25T08:45:05.587Z,7.00
2018-03-25T08:47:32.296Z,7.90
2018-03-25T08:49:59.033Z,7.70
2018-03-25T08:52:25.733Z,7.03
2018-03-25T08:54:52.461Z,8.00
2018-03-25T08:57:19.192Z,9.83
2018-03-25T08:59:45.900Z,7.53
2018-03-25T09:02:12.618Z,7.37
2018-03-25T09:04:39.367Z,7.40
2018-03-25T09:07:06.071Z,6.63
2018-03-25T09:09:32.768Z,8.17
2018-03-25T09:11:59.515Z,5.57
2018-03-25T09:14:26.212Z,7.53
2018-03-25T09:16:52.921Z,6.93
2018-03-25T09:19:19.641Z,9.37
2018-03-25T09:21:46.364Z,5.50
2018-03-25T09:24:13.080Z,8.07
2018-03-25T09:26:39.938Z,8.10
2018-03-25T09:29:06.655Z,8.33
2018-03-25T09:31:33.373Z,6.00
2018-03-25T09:34:00.093Z,5.87
2018-03-25T09:36:26.802Z,6.20
2018-03-25T09:38:53.513Z,6.30
2018-03-25T09:41:20.245Z,6.27
2018-03-25T09:43:47.228Z,6.73
2018-03-25T09:46:13.938Z,9.27
2018-03-25T09:48:40.904Z,7.17
2018-03-25T09:51:07.605Z,7.73
2018-03-25T09:53:34.333Z,7.57
2018-03-25T09:56:01.069Z,6.47
2018-03-25T09:58:27.829Z,7.43
2018-03-25T10:01:00.242Z,5.20
2018-03-25T10:03:30.645Z,7.73
2018-03-25T10:05:57.353Z,7.13
2018-03-25T10:08:24.053Z,5.50
2018-03-25T10:10:51.088Z,4.97
2018-03-25T10:13:17.927Z,7.50
2018-03-25T10:15:44.621Z,6.17
2018-03-25T10:18:11.351Z,6.73
2018-03-25T10:20:38.046Z,7.43
2018-03-25T10:23:04.749Z,7.70
2018-03-25T10:25:31.509Z,5.90
2018-03-25T10:27:58.216Z,5.37
2018-03-25T10:30:24.938Z,6.57
2018-03-25T10:32:51.665Z,5.40
2018-03-25T10:35:18.390Z,7.50
2018-03-25T10:37:45.128Z,7.20
2018-03-25T10:40:11.862Z,7.30
2018-03-25T10:42:38.565Z,7.60
2018-03-25T10:45:05.345Z,6.07
2018-03-25T10:47:32.101Z,5.67
2018-03-25T10:49:58.806Z,5.07
2018-03-25T10:52:25.515Z,4.63
2018-03-25T10:54:52.264Z,5.50
2018-03-25T10:57:18.971Z,4.07
2018-03-25T10:59:45.669Z,3.83
2018-03-25T11:02:12.468Z,7.80
2018-03-25T11:04:39.186Z,4.03
2018-03-25T11:07:05.897Z,5.50
2018-03-25T11:09:32.842Z,7.57
2018-03-25T11:11:59.597Z,4.30
2018-03-25T11:14:26.302Z,6.73
2018-03-25T11:16:53.028Z,4.37
2018-03-25T11:19:19.741Z,6.30
2018-03-25T11:21:46.446Z,4.80
2018-03-25T11:24:13.174Z,6.13
2018-03-25T11:26:39.874Z,6.10
2018-03-25T11:29:06.579Z,7.17
2018-03-25T11:31:33.302Z,6.53
2018-03-25T11:34:00.036Z,5.17
2018-03-25T11:36:26.729Z,8.90
2018-03-25T11:38:53.469Z,4.87
2018-03-25T11:41:20.174Z,6.33
2018-03-25T11:43:46.877Z,8.20
2018-03-25T11:46:13.598Z,3.73
2018-03-25T11:48:40.297Z,9.27
2018-03-25T11:51:07.005Z,6.13
2018-03-25T11:53:33.849Z,5.70
2018-03-25T11:56:00.545Z,6.67
2018-03-25T11:58:27.249Z,4.40
2018-03-25T12:00:53.982Z,4.47
2018-03-25T12:03:20.838Z,5.07
2018-03-25T12:05:47.545Z,7.37
2018-03-25T12:08:14.292Z,3.67
2018-03-25T12:10:41.001Z,6.97
2018-03-25T12:13:07.705Z,3.33
2018-03-25T12:15:34.615Z,3.83
2018-03-25T12:18:01.314Z,8.20
2018-03-25T12:20:28.022Z,5.47
2018-03-25T12:22:54.752Z,8.77
2018-03-25T12:25:21.462Z,3.77
2018-03-25T12:27:48.157Z,4.17
2018-03-25T12:30:14.951Z,3.83
2018-03-25T12:32:41.657Z,4.70
2018-03-25T12:35:08.369Z,3.63
2018-03-25T12:37:35.097Z,6.67
2018-03-25T12:40:01.809Z,4.87
2018-03-25T12:42:28.507Z,4.20
2018-03-25T12:44:55.237Z,4.90
2018-03-25T12:47:21.937Z,4.10
2018-03-25T12:49:48.636Z,7.03
2018-03-25T12:52:15.412Z,3.10
2018-03-25T12:54:42.146Z,8.17
2018-03-25T12:57:08.845Z,3.50
2018-03-25T12:59:35.574Z,3.43
2018-03-25T13:02:02.281Z,4.53
2018-03-25T13:04:28.985Z,4.13
2018-03-25T13:06:55.717Z,8.60
2018-03-25T13:09:22.413Z,7.17
2018-03-25T13:11:49.108Z,5.30
2018-03-25T13:14:15.841Z,6.07
2018-03-25T13:16:42.539Z,3.00
2018-03-25T13:19:09.237Z,3.10
2018-03-25T13:21:35.979Z,5.83
2018-03-25T13:24:02.686Z,2.90
2018-03-25T13:26:29.389Z,3.87
2018-03-25T13:28:56.170Z,6.67
2018-03-25T13:31:22.850Z,5.20
2018-03-25T13:33:49.557Z,5.43
2018-03-25T13:36:16.281Z,5.93
2018-03-25T13:38:42.986Z,4.60
2018-03-25T13:41:09.714Z,5.67
2018-03-25T13:43:36.487Z,3.50
2018-03-25T13:46:03.193Z,5.33
2018-03-25T13:48:29.898Z,3.43
2018-03-25T13:50:56.636Z,5.03
2018-03-25T13:53:23.347Z,5.23
2018-03-25T13:55:50.093Z,6.03
2018-03-25T13:58:16.837Z,3.70
2018-03-25T14:00:43.542Z,4.87
2018-03-25T14:03:10.258Z,5.63
2018-03-25T14:05:37.042Z,4.27
2018-03-25T14:08:04.000Z,5.73
2018-03-25T14:10:30.717Z,4.67
2018-03-25T14:12:57.570Z,4.37
2018-03-25T14:15:24.311Z,10.77
2018-03-25T14:17:51.013Z,5.67
2018-03-25T14:20:17.746Z,3.87
2018-03-25T14:22:44.477Z,5.17
2018-03-25T14:25:11.185Z,3.10
2018-03-25T14:27:37.918Z,4.07
2018-03-25T14:30:04.701Z,3.90
2018-03-25T14:32:31.361Z,2.97
2018-03-25T14:34:58.093Z,3.00
2018-03-25T14:37:24.791Z,6.43
2018-03-25T14:39:51.495Z,3.40
2018-03-25T14:42:18.265Z,2.73
2018-03-25T14:44:44.986Z,5.27
2018-03-25T14:47:11.716Z,1.87
2018-03-25T14:49:38.449Z,3.73
2018-03-25T14:52:05.146Z,4.67
2018-03-25T14:54:31.853Z,6.93
2018-03-25T14:56:58.578Z,3.77
2018-03-25T14:59:25.276Z,2.43
2018-03-25T15:01:52.009Z,1.93
2018-03-25T15:04:18.829Z,3.43
2018-03-25T15:06:45.573Z,4.60
2018-03-25T15:09:12.268Z,3.60
2018-03-25T15:11:38.989Z,1.60
2018-03-25T15:14:05.696Z,6.23
2018-03-25T15:16:32.397Z,3.00
2018-03-25T15:18:59.121Z,2.60
2018-03-25T15:21:25.816Z,6.63
2018-03-25T15:23:52.521Z,3.17
2018-03-25T15:26:19.266Z,3.67
2018-03-25T15:28:45.978Z,3.27
2018-03-25T15:31:12.717Z,7.93
2018-03-25T15:33:39.636Z,3.33
2018-03-25T15:36:06.475Z,4.40
2018-03-25T15:38:33.173Z,4.63
2018-03-25T15:40:59.894Z,3.77
2018-03-25T15:43:26.613Z,2.43
2018-03-25T15:45:53.313Z,4.93
2018-03-25T15:48:20.063Z,2.17
2018-03-25T15:50:46.769Z,3.20
2018-03-25T15:53:13.469Z,3.10
2018-03-25T15:55:40.201Z,4.00
2018-03-25T15:58:06.948Z,5.70
2018-03-25T16:00:33.650Z,2.73
2018-03-25T16:03:00.384Z,3.13
2018-03-25T16:05:27.084Z,4.10
2018-03-25T16:07:53.793Z,9.90
2018-03-25T16:10:20.560Z,9.77
2018-03-25T16:12:47.269Z,10.07
2018-03-25T16:15:13.975Z,2.60
2018-03-25T16:17:40.730Z,7.10
2018-03-25T16:20:07.434Z,4.13
2018-03-25T16:22:34.951Z,7.23
2018-03-25T16:25:01.734Z,6.03
2018-03-25T16:27:28.446Z,2.77
2018-03-25T16:29:55.274Z,4.53
2018-03-25T16:32:21.997Z,4.97
2018-03-25T16:34:48.705Z,3.93
2018-03-25T16:37:15.405Z,4.80
2018-03-25T16:39:42.137Z,3.53
2018-03-25T16:42:08.869Z,2.70
2018-03-25T16:44:35.572Z,4.07
2018-03-25T16:47:02.297Z,4.53
2018-03-25T16:49:28.997Z,3.40
2018-03-25T16:51:55.697Z,4.83
2018-03-25T16:54:22.429Z,5.47
2018-03-25T16:56:49.146Z,4.13
2018-03-25T16:59:15.853Z,3.13
2018-03-25T17:01:42.602Z,2.93
2018-03-25T17:04:09.424Z,1.77
2018-03-25T17:06:36.133Z,2.33
2018-03-25T17:09:03.103Z,2.10
2018-03-25T17:11:29.849Z,3.63
2018-03-25T17:13:56.565Z,2.67
2018-03-25T17:16:23.290Z,2.13
2018-03-25T17:18:49.985Z,2.83
2018-03-25T17:21:16.693Z,1.97
2018-03-25T17:23:43.421Z,1.53
2018-03-25T17:26:10.136Z,4.20
2018-03-25T17:28:36.846Z,5.50
2018-03-25T17:31:03.589Z,1.97
2018-03-25T17:33:30.287Z,3.73
2018-03-25T17:35:56.988Z,1.13
2018-03-25T17:38:23.711Z,3.40
2018-03-25T17:40:50.433Z,2.63
2018-03-25T17:43:17.133Z,2.07
2018-03-25T17:45:43.870Z,1.60
2018-03-25T17:48:10.575Z,1.57
2018-03-25T17:50:37.286Z,4.83
2018-03-25T17:53:04.009Z,3.20
2018-03-25T17:55:30.754Z,3.53
2018-03-25T17:57:57.453Z,5.03
2018-03-25T18:00:24.183Z,3.40
2018-03-25T18:02:51.084Z,2.33
2018-03-25T18:05:17.794Z,3.10
2018-03-25T18:07:44.513Z,6.73
2018-03-25T18:10:11.230Z,2.43
2018-03-25T18:12:37.935Z,2.57
2018-03-25T18:15:04.669Z,2.33
2018-03-25T18:17:34.099Z,2.50
2018-03-25T18:19:58.138Z,2.30
2018-03-25T18:22:24.885Z,2.17
2018-03-25T18:24:51.591Z,4.17
2018-03-25T18:27:18.307Z,4.73
2018-03-25T18:29:45.034Z,5.67
2018-03-25T18:32:11.824Z,4.23
2018-03-25T18:34:38.529Z,4.27
2018-03-25T18:37:05.261Z,3.23
2018-03-25T18:39:31.994Z,2.07
2018-03-25T18:41:58.698Z,2.10
2018-03-25T18:44:25.439Z,1.60
2018-03-25T18:46:52.141Z,2.87
2018-03-25T18:49:18.884Z,2.47
2018-03-25T18:51:45.613Z,3.10
2018-03-25T18:54:12.317Z,1.30
2018-03-25T18:56:39.025Z,4.77
2018-03-25T18:59:05.766Z,3.83
2018-03-25T19:01:32.477Z,1.93
2018-03-25T19:03:59.198Z,1.33
2018-03-25T19:06:25.949Z,3.80
2018-03-25T19:08:52.652Z,3.63
2018-03-25T19:11:19.358Z,1.60
2018-03-25T19:13:46.089Z,5.67
2018-03-25T19:16:12.786Z,1.57
2018-03-25T19:18:39.490Z,5.13
2018-03-25T19:21:06.224Z,2.43
2018-03-25T19:23:33.193Z,1.80
2018-03-25T19:25:59.902Z,2.93
2018-03-25T19:28:26.641Z,2.43
2018-03-25T19:30:53.345Z,4.20
2018-03-25T19:33:20.095Z,3.10
2018-03-25T19:35:46.829Z,2.40
2018-03-25T19:38:13.529Z,1.67
2018-03-25T19:40:40.291Z,1.97
2018-03-25T19:43:07.022Z,2.33
2018-03-25T19:45:33.721Z,4.93
2018-03-25T19:48:00.433Z,4.27
2018-03-25T19:50:27.174Z,1.57
2018-03-25T19:52:53.882Z,4.13
2018-03-25T19:55:20.608Z,2.40
2018-03-25T19:57:47.337Z,2.43
2018-03-25T20:00:14.033Z,2.07
2018-03-25T20:02:40.737Z,3.87
2018-03-25T20:05:07.481Z,2.33
2018-03-25T20:07:34.181Z,2.03
2018-03-25T20:10:00.909Z,2.90
2018-03-25T20:12:27.646Z,2.83
2018-03-25T20:14:54.341Z,1.97
2018-03-25T20:17:21.043Z,1.73
2018-03-25T20:19:47.800Z,1.53
2018-03-25T20:22:14.560Z,1.80
2018-03-25T20:24:41.242Z,1.93
2018-03-25T20:27:07.966Z,2.17
2018-03-25T20:29:34.690Z,1.90
2018-03-25T20:32:01.710Z,4.30
2018-03-25T20:34:28.453Z,2.10
2018-03-25T20:36:55.160Z,2.50
2018-03-25T20:39:21.932Z,2.60
2018-03-25T20:41:48.657Z,5.23
2018-03-25T20:44:15.509Z,5.10
2018-03-25T20:46:42.229Z,2.70
2018-03-25T20:49:08.957Z,3.00
2018-03-25T20:51:35.681Z,2.23
2018-03-25T20:54:02.385Z,3.97
2018-03-25T20:56:29.116Z,2.73
2018-03-25T20:58:55.865Z,4.50
2018-03-25T21:01:22.570Z,2.63
2018-03-25T21:03:49.301Z,2.43
2018-03-25T21:06:15.998Z,2.60
2018-03-25T21:08:42.714Z,3.20
2018-03-25T21:11:09.458Z,3.57
2018-03-25T21:13:36.169Z,2.67
2018-03-25T21:16:02.913Z,3.30
2018-03-25T21:18:29.639Z,2.80
2018-03-25T21:20:56.345Z,3.03
2018-03-25T21:23:23.049Z,2.60
2018-03-25T21:25:50.088Z,2.70
2018-03-25T21:28:16.786Z,2.20
2018-03-25T21:30:43.507Z,3.60
2018-03-25T21:33:10.256Z,2.47
2018-03-25T21:35:37.155Z,4.03
2018-03-25T21:38:03.862Z,2.10
2018-03-25T21:40:30.601Z,1.97
2018-03-25T21:42:57.303Z,2.27
2018-03-25T21:45:24.010Z,2.03
2018-03-25T21:47:50.732Z,2.30
2018-03-25T21:50:17.434Z,2.80
2018-03-25T21:52:44.145Z,3.00
2018-03-25T21:55:10.886Z,3.07
2018-03-25T21:57:37.582Z,3.27
2018-03-25T22:00:05.180Z,2.00
2018-03-25T22:02:31.932Z,2.00
2018-03-25T22:04:58.635Z,2.90
2018-03-25T22:07:25.355Z,2.17
2018-03-25T22:09:52.133Z,1.90
2018-03-25T22:12:18.837Z,2.93
2018-03-25T22:14:45.540Z,4.93
2018-03-25T22:17:12.270Z,2.00
2018-03-25T22:19:38.973Z,1.90
2018-03-25T22:22:05.680Z,2.77
2018-03-25T22:24:32.471Z,2.80
2018-03-25T22:26:59.173Z,1.80
2018-03-25T22:29:25.872Z,1.97
2018-03-25T22:31:52.609Z,2.13
2018-03-25T22:34:19.315Z,2.40
2018-03-25T22:36:46.017Z,2.00
2018-03-25T22:39:12.744Z,2.90
2018-03-25T22:41:39.673Z,2.20
2018-03-25T22:44:06.385Z,2.20
2018-03-25T22:46:33.121Z,1.83
2018-03-25T22:48:59.831Z,4.47
2018-03-25T22:51:26.533Z,2.13
2018-03-25T22:53:53.273Z,1.83
2018-03-25T22:56:19.980Z,2.00
2018-03-25T22:58:46.685Z,1.90
2018-03-25T23:01:13.428Z,1.77
2018-03-25T23:03:40.129Z,1.60
2018-03-25T23:06:06.835Z,2.03
2018-03-25T23:08:33.567Z,1.90
2018-03-25T23:11:00.263Z,2.73
2018-03-25T23:13:27.016Z,1.80
2018-03-25T23:15:53.752Z,1.70
2018-03-25T23:18:20.453Z,1.70
2018-03-25T23:20:47.173Z,1.90
2018-03-25T23:23:13.910Z,1.63
2018-03-25T23:25:40.663Z,1.63
2018-03-25T23:28:07.363Z,1.93
2018-03-25T23:30:34.097Z,2.90
2018-03-25T23:33:00.793Z,2.23
2018-03-25T23:35:27.510Z,1.67
2018-03-25T23:37:54.352Z,1.77
2018-03-25T23:40:21.061Z,3.27
2018-03-25T23:42:47.765Z,1.80
2018-03-25T23:45:14.497Z,1.70
2018-03-25T23:47:41.208Z,2.07
2018-03-25T23:50:07.924Z,1.70
2018-03-25T23:52:34.661Z,1.77
2018-03-25T23:55:01.371Z,1.50
2018-03-25T23:57:28.097Z,1.60
2018-03-25T23:59:54.855Z,1.43
